createdAt,value
2019-02-08T00:01:28.371Z,10.37
2019-02-08T00:03:57.418Z,9.45
2019-02-08T00:06:25.626Z,9.10
2019-02-08T00:08:54.045Z,8.00
2019-02-08T00:11:23.005Z,9.13
2019-02-08T00:13:51.657Z,8.83
2019-02-08T00:16:21.540Z,10.08
2019-02-08T00:18:51.583Z,9.33
2019-02-08T00:21:20.005Z,8.88
2019-02-08T00:23:48.870Z,8.00
2019-02-08T00:26:17.347Z,14.95
2019-02-08T00:28:45.456Z,9.77
2019-02-08T00:31:13.561Z,9.45
2019-02-08T00:33:42.644Z,9.75
2019-02-08T00:36:11.107Z,10.65
2019-02-08T00:38:40.056Z,8.43
2019-02-08T00:41:08.441Z,13.35
2019-02-08T00:43:38.189Z,9.80
2019-02-08T00:46:06.263Z,8.15
2019-02-08T00:48:35.013Z,8.65
2019-02-08T00:51:03.776Z,6.80
2019-02-08T00:53:33.588Z,6.90
2019-02-08T00:56:02.400Z,9.43
2019-02-08T00:58:30.403Z,7.83
2019-02-08T01:00:59.208Z,6.80
2019-02-08T01:03:27.314Z,6.15
2019-02-08T01:05:55.744Z,5.20
2019-02-08T01:08:24.401Z,6.47
2019-02-08T01:10:53.239Z,5.97
2019-02-08T01:13:21.652Z,7.62
2019-02-08T01:15:50.565Z,5.83
2019-02-08T01:18:19.451Z,5.62
2019-02-08T01:20:48.553Z,4.87
2019-02-08T01:23:17.380Z,5.50
2019-02-08T01:25:45.903Z,6.30
2019-02-08T01:28:14.558Z,5.37
2019-02-08T01:30:43.219Z,3.98
2019-02-08T01:33:11.818Z,6.72
2019-02-08T01:35:40.093Z,5.65
2019-02-08T01:38:08.596Z,8.10
2019-02-08T01:40:37.839Z,4.90
2019-02-08T01:43:06.520Z,5.00
2019-02-08T01:45:34.621Z,7.22
2019-02-08T01:48:02.980Z,6.45
2019-02-08T01:50:31.947Z,6.62
2019-02-08T01:53:00.811Z,5.92
2019-02-08T01:55:29.840Z,6.97
2019-02-08T01:57:58.203Z,6.47
2019-02-08T02:00:30.824Z,4.78
2019-02-08T02:03:01.627Z,7.25
2019-02-08T02:05:29.375Z,8.63
2019-02-08T02:07:58.037Z,9.30
2019-02-08T02:10:30.215Z,6.85
2019-02-08T02:12:58.335Z,9.30
2019-02-08T02:15:27.229Z,9.73
2019-02-08T02:17:56.359Z,7.53
2019-02-08T02:20:25.734Z,10.95
2019-02-08T02:22:54.856Z,6.15
2019-02-08T02:25:23.516Z,8.90
2019-02-08T02:27:51.644Z,8.07
2019-02-08T02:30:21.506Z,9.90
2019-02-08T02:32:50.399Z,9.18
2019-02-08T02:35:18.688Z,6.97
2019-02-08T02:37:47.119Z,7.12
2019-02-08T02:40:15.962Z,9.80
2019-02-08T02:42:44.823Z,7.00
2019-02-08T02:45:14.965Z,9.98
2019-02-08T02:47:43.072Z,10.65
2019-02-08T02:50:13.194Z,9.00
2019-02-08T02:52:43.261Z,9.95
2019-02-08T02:55:11.872Z,10.65
2019-02-08T02:57:40.327Z,10.65
2019-02-08T03:00:13.736Z,9.33
2019-02-08T03:02:42.411Z,11.83
2019-02-08T03:05:10.982Z,9.75
2019-02-08T03:07:39.475Z,11.20
2019-02-08T03:10:08.662Z,10.83
2019-02-08T03:12:37.216Z,12.03
2019-02-08T03:15:06.468Z,12.88
2019-02-08T03:17:34.693Z,14.20
2019-02-08T03:20:02.867Z,11.43
2019-02-08T03:22:31.716Z,14.70
2019-02-08T03:25:01.413Z,12.33
2019-02-08T03:27:30.300Z,12.05
2019-02-08T03:29:58.784Z,12.13
2019-02-08T03:32:28.370Z,15.93
2019-02-08T03:34:56.785Z,15.30
2019-02-08T03:37:26.248Z,14.50
2019-02-08T03:39:54.387Z,15.43
2019-02-08T03:42:22.889Z,15.58
2019-02-08T03:44:50.967Z,15.83
2019-02-08T03:47:19.392Z,16.52
2019-02-08T03:49:47.576Z,14.95
2019-02-08T03:52:15.773Z,15.63
2019-02-08T03:54:44.231Z,14.75
2019-02-08T03:57:13.471Z,19.10
2019-02-08T03:59:41.571Z,15.70
2019-02-08T04:02:09.635Z,14.93
2019-02-08T04:04:37.987Z,17.05
2019-02-08T04:07:06.989Z,17.75
2019-02-08T04:09:35.823Z,15.18
2019-02-08T04:12:04.291Z,13.93
2019-02-08T04:14:32.725Z,15.50
2019-02-08T04:17:01.121Z,17.05
2019-02-08T04:19:30.055Z,15.00
2019-02-08T04:21:58.680Z,18.05
2019-02-08T04:24:30.032Z,18.50
2019-02-08T04:26:57.644Z,17.35
2019-02-08T04:29:27.503Z,17.25
2019-02-08T04:31:55.625Z,15.75
2019-02-08T04:34:24.635Z,18.27
2019-02-08T04:36:52.804Z,14.93
2019-02-08T04:39:20.921Z,16.60
2019-02-08T04:41:49.049Z,16.83
2019-02-08T04:44:17.051Z,15.10
2019-02-08T04:46:45.200Z,17.80
2019-02-08T04:49:13.316Z,16.15
2019-02-08T04:51:41.949Z,14.03
2019-02-08T04:54:10.541Z,15.20
2019-02-08T04:56:38.928Z,17.15
2019-02-08T04:59:07.134Z,16.30
2019-02-08T05:01:35.473Z,16.80
2019-02-08T05:04:04.304Z,17.50
2019-02-08T05:06:32.580Z,17.20
2019-02-08T05:09:02.888Z,16.07
2019-02-08T05:11:31.180Z,15.95
2019-02-08T05:14:00.451Z,17.23
2019-02-08T05:16:28.598Z,17.87
2019-02-08T05:18:57.159Z,17.98
2019-02-08T05:21:25.211Z,17.12
2019-02-08T05:23:53.549Z,16.48
2019-02-08T05:26:21.664Z,15.20
2019-02-08T05:28:49.943Z,18.52
2019-02-08T05:31:18.894Z,14.85
2019-02-08T05:33:47.680Z,19.67
2019-02-08T05:36:16.567Z,17.80
2019-02-08T05:38:44.617Z,17.60
2019-02-08T05:41:13.417Z,17.35
2019-02-08T05:43:41.648Z,16.82
2019-02-08T05:46:10.579Z,17.87
2019-02-08T05:48:38.941Z,14.87
2019-02-08T05:51:07.009Z,13.93
2019-02-08T05:53:37.232Z,16.77
2019-02-08T05:56:05.776Z,16.17
2019-02-08T05:58:34.239Z,16.15
2019-02-08T06:01:02.715Z,17.33
2019-02-08T06:03:31.042Z,15.43
2019-02-08T06:05:59.582Z,17.37
2019-02-08T06:08:28.108Z,17.00
2019-02-08T06:10:56.486Z,18.05
2019-02-08T06:13:25.033Z,13.15
2019-02-08T06:15:53.189Z,13.83
2019-02-08T06:18:22.096Z,14.53
2019-02-08T06:20:51.191Z,17.70
2019-02-08T06:23:19.308Z,14.58
2019-02-08T06:25:48.152Z,15.20
2019-02-08T06:28:16.767Z,16.57
2019-02-08T06:30:45.930Z,14.83
2019-02-08T06:33:14.228Z,13.20
2019-02-08T06:35:42.778Z,16.85
2019-02-08T06:38:11.160Z,16.40
2019-02-08T06:40:41.420Z,15.18
2019-02-08T06:43:10.117Z,16.77
2019-02-08T06:45:38.504Z,14.33
2019-02-08T06:48:08.717Z,16.27
2019-02-08T06:50:37.097Z,15.58
2019-02-08T06:53:05.187Z,13.93
2019-02-08T06:55:33.248Z,12.88
2019-02-08T06:58:20.868Z,11.10
2019-02-08T07:01:23.972Z,13.03
2019-02-08T07:04:14.432Z,12.63
2019-02-08T07:07:02.745Z,12.00
2019-02-08T07:09:49.117Z,12.53
2019-02-08T07:12:34.965Z,10.88
2019-02-08T07:15:20.686Z,13.25
2019-02-08T07:18:10.752Z,13.77
2019-02-08T07:21:13.633Z,11.70
2019-02-08T07:23:48.361Z,14.25
2019-02-08T07:26:46.122Z,11.85
2019-02-08T07:29:47.362Z,12.15
2019-02-08T07:32:40.581Z,12.55
2019-02-08T07:35:31.584Z,12.33
2019-02-08T07:38:23.960Z,11.00
2019-02-08T07:41:19.746Z,12.43
2019-02-08T07:44:13.012Z,10.03
2019-02-08T07:46:53.255Z,10.03
2019-02-08T07:49:40.105Z,10.78
2019-02-08T07:52:26.199Z,8.98
2019-02-08T07:55:16.128Z,11.05
2019-02-08T07:58:03.304Z,9.73
2019-02-08T08:00:52.245Z,10.05
2019-02-08T08:03:30.111Z,9.35
2019-02-08T08:06:29.581Z,9.68
2019-02-08T08:09:14.480Z,9.18
2019-02-08T08:11:58.037Z,11.60
2019-02-08T08:14:45.191Z,11.95
2019-02-08T08:17:33.134Z,8.70
2019-02-08T08:20:23.627Z,13.03
2019-02-08T08:23:11.144Z,9.63
2019-02-08T08:26:15.421Z,8.68
2019-02-08T08:29:18.165Z,9.70
2019-02-08T08:31:55.803Z,10.60
2019-02-08T08:34:29.531Z,9.95
2019-02-08T08:37:19.834Z,10.88
2019-02-08T08:40:06.101Z,8.85
2019-02-08T08:43:08.765Z,12.07
2019-02-08T08:45:59.260Z,9.68
2019-02-08T08:48:52.501Z,11.90
2019-02-08T08:51:41.059Z,8.15
2019-02-08T08:54:19.596Z,9.18
2019-02-08T08:57:08.076Z,10.30
2019-02-08T09:00:01.398Z,10.05
2019-02-08T09:02:48.605Z,11.10
2019-02-08T09:05:23.140Z,7.15
2019-02-08T09:08:13.323Z,10.95
2019-02-08T09:10:59.669Z,11.55
2019-02-08T09:14:03.916Z,10.55
2019-02-08T09:16:41.212Z,9.18
2019-02-08T09:19:28.664Z,11.50
2019-02-08T09:22:14.899Z,9.60
2019-02-08T09:25:18.900Z,9.63
2019-02-08T09:27:59.336Z,9.58
2019-02-08T09:30:32.714Z,9.28
2019-02-08T09:33:38.273Z,10.43
2019-02-08T09:36:25.713Z,8.77
2019-02-08T09:39:22.196Z,8.05
2019-02-08T09:42:12.164Z,8.50
2019-02-08T09:44:56.599Z,8.23
2019-02-08T09:47:50.551Z,8.73
2019-02-08T09:50:36.423Z,6.08
2019-02-08T09:53:32.909Z,8.97
2019-02-08T09:56:14.521Z,8.25
2019-02-08T09:59:00.249Z,9.33
2019-02-08T10:02:05.567Z,8.25
2019-02-08T10:04:46.112Z,8.70
2019-02-08T10:07:25.854Z,8.33
2019-02-08T10:10:14.139Z,9.85
2019-02-08T10:13:10.441Z,7.50
2019-02-08T10:16:03.431Z,8.28
2019-02-08T10:18:49.194Z,10.53
2019-02-08T10:21:55.168Z,8.18
2019-02-08T10:24:41.340Z,7.85
2019-02-08T10:27:27.264Z,9.13
2019-02-08T10:30:13.077Z,5.78
2019-02-08T10:33:00.549Z,11.65
2019-02-08T10:35:54.344Z,9.45
2019-02-08T10:38:41.584Z,9.28
2019-02-08T10:41:43.304Z,7.90
2019-02-08T10:44:30.731Z,7.72
2019-02-08T10:47:18.356Z,7.80
2019-02-08T10:50:11.177Z,8.35
2019-02-08T10:53:17.087Z,6.83
2019-02-08T10:56:04.693Z,8.18
2019-02-08T10:58:50.867Z,8.15
2019-02-08T11:01:41.912Z,7.15
2019-02-08T11:04:22.436Z,11.10
2019-02-08T11:07:27.737Z,8.13
2019-02-08T11:10:10.913Z,7.58
2019-02-08T11:12:56.665Z,6.50
2019-02-08T11:15:43.109Z,8.53
2019-02-08T11:18:36.508Z,8.93
2019-02-08T11:21:05.287Z,6.22
2019-02-08T11:23:33.671Z,9.97
2019-02-08T11:26:02.250Z,6.62
2019-02-08T11:28:30.527Z,9.37
2019-02-08T11:30:58.559Z,6.78
2019-02-08T11:33:27.405Z,6.12
2019-02-08T11:35:56.105Z,6.70
2019-02-08T11:38:24.496Z,6.85
2019-02-08T11:40:52.842Z,7.22
2019-02-08T11:43:20.942Z,7.03
2019-02-08T11:45:49.351Z,7.83
2019-02-08T11:48:17.468Z,7.97
2019-02-08T11:50:45.776Z,8.80
2019-02-08T11:53:15.697Z,7.53
2019-02-08T11:55:43.709Z,7.40
2019-02-08T11:58:12.329Z,6.20
2019-02-08T12:00:45.513Z,6.33
2019-02-08T12:03:13.568Z,6.23
2019-02-08T12:05:42.163Z,6.43
2019-02-08T12:08:11.785Z,6.47
2019-02-08T12:10:40.937Z,6.50
2019-02-08T12:13:09.057Z,4.70
2019-02-08T12:15:37.456Z,5.58
2019-02-08T12:18:05.629Z,8.15
2019-02-08T12:20:34.032Z,5.60
2019-02-08T12:23:02.371Z,7.78
2019-02-08T12:25:30.459Z,6.08
2019-02-08T12:27:58.497Z,5.08
2019-02-08T12:30:31.489Z,6.10
2019-02-08T12:33:00.278Z,7.03
2019-02-08T12:35:29.001Z,10.65
2019-02-08T12:37:57.451Z,4.53
2019-02-08T12:40:25.841Z,5.12
2019-02-08T12:42:54.507Z,4.45
2019-02-08T12:45:22.633Z,6.65
2019-02-08T12:47:50.699Z,5.30
2019-02-08T12:50:18.837Z,5.80
2019-02-08T12:52:47.520Z,5.95
2019-02-08T12:55:15.680Z,4.42
2019-02-08T12:57:44.174Z,4.97
2019-02-08T13:00:14.619Z,6.43
2019-02-08T13:02:43.192Z,5.55
2019-02-08T13:05:11.540Z,5.78
2019-02-08T13:07:39.931Z,5.30
2019-02-08T13:10:08.836Z,7.62
2019-02-08T13:12:36.882Z,7.28
2019-02-08T13:15:06.382Z,4.30
2019-02-08T13:17:35.000Z,6.50
2019-02-08T13:20:03.041Z,6.80
2019-02-08T13:22:31.419Z,7.45
2019-02-08T13:24:59.485Z,5.78
2019-02-08T13:27:28.225Z,5.70
2019-02-08T13:29:56.580Z,5.65
2019-02-08T13:32:24.967Z,5.63
2019-02-08T13:34:53.027Z,4.30
2019-02-08T13:37:21.482Z,6.12
2019-02-08T13:39:49.800Z,5.03
2019-02-08T13:42:18.172Z,4.47
2019-02-08T13:44:46.211Z,6.87
2019-02-08T13:47:14.553Z,5.70
2019-02-08T13:49:42.897Z,6.62
2019-02-08T13:54:52.670Z,6.42
2019-02-08T13:57:21.045Z,6.17
2019-02-08T13:59:49.092Z,5.30
2019-02-08T14:02:17.409Z,6.03
2019-02-08T14:04:45.878Z,5.58
2019-02-08T14:07:13.899Z,4.45
2019-02-08T14:09:42.364Z,5.95
2019-02-08T14:12:10.735Z,44.50
2019-02-08T14:14:39.078Z,7.00
2019-02-08T14:17:07.717Z,7.00
2019-02-08T14:19:36.044Z,5.97
2019-02-08T14:22:04.565Z,6.80
2019-02-08T14:24:33.065Z,7.73
2019-02-08T14:27:08.321Z,6.50
2019-02-08T14:29:31.209Z,6.15
2019-02-08T14:31:59.603Z,5.78
2019-02-08T14:34:28.473Z,6.67
2019-02-08T14:36:56.546Z,5.10
2019-02-08T14:39:24.606Z,5.60
2019-02-08T14:41:52.933Z,5.85
2019-02-08T14:44:20.943Z,6.35
2019-02-08T14:46:49.349Z,8.58
2019-02-08T14:49:17.420Z,5.70
2019-02-08T14:51:45.442Z,5.65
2019-02-08T14:54:14.079Z,7.65
2019-02-08T14:56:42.096Z,7.00
2019-02-08T14:59:10.438Z,10.58
2019-02-08T15:01:38.829Z,6.33
2019-02-08T15:04:07.870Z,6.08
2019-02-08T15:06:36.029Z,9.50
2019-02-08T15:09:05.990Z,8.33
2019-02-08T15:11:34.109Z,6.65
2019-02-08T15:14:02.169Z,6.87
2019-02-08T15:16:30.525Z,5.80
2019-02-08T15:18:58.993Z,5.17
2019-02-08T15:21:27.724Z,7.58
2019-02-08T15:23:56.532Z,8.38
2019-02-08T15:26:24.719Z,7.87
2019-02-08T15:28:52.761Z,8.30
2019-02-08T15:31:20.847Z,8.48
2019-02-08T15:33:49.325Z,6.53
2019-02-08T15:36:17.751Z,7.00
2019-02-08T15:38:45.814Z,4.75
2019-02-08T15:41:14.213Z,7.25
2019-02-08T15:43:42.820Z,7.37
2019-02-08T15:46:10.864Z,8.00
2019-02-08T15:48:39.235Z,6.60
2019-02-08T15:51:07.928Z,7.70
2019-02-08T15:53:36.005Z,8.00
2019-02-08T15:56:11.835Z,5.17
2019-02-08T15:58:40.236Z,6.73
2019-02-08T16:01:10.044Z,6.25
2019-02-08T16:03:38.326Z,6.03
2019-02-08T16:06:07.094Z,7.28
2019-02-08T16:08:35.128Z,6.20
2019-02-08T16:11:03.141Z,8.90
2019-02-08T16:13:31.202Z,6.97
2019-02-08T16:15:59.229Z,5.17
2019-02-08T16:18:27.292Z,5.80
2019-02-08T16:20:55.470Z,8.08
2019-02-08T16:23:23.520Z,4.42
2019-02-08T16:25:51.693Z,6.30
2019-02-08T16:28:20.072Z,6.05
2019-02-08T16:30:48.448Z,4.90
2019-02-08T16:33:17.535Z,5.45
2019-02-08T16:35:45.889Z,5.72
2019-02-08T16:38:13.938Z,6.20
2019-02-08T16:40:42.414Z,7.80
2019-02-08T16:43:11.083Z,4.90
2019-02-08T16:45:39.539Z,5.35
2019-02-08T16:48:08.344Z,4.40
2019-02-08T16:50:36.409Z,6.37
2019-02-08T16:53:05.038Z,4.92
2019-02-08T16:55:33.236Z,6.72
2019-02-08T16:58:02.085Z,7.30
2019-02-08T17:00:31.471Z,6.55
2019-02-08T17:03:01.256Z,7.17
2019-02-08T17:05:29.673Z,5.85
2019-02-08T17:07:57.853Z,5.67
2019-02-08T17:10:26.294Z,6.95
2019-02-08T17:12:54.783Z,5.97
2019-02-08T17:15:23.472Z,5.95
2019-02-08T17:17:51.870Z,7.28
2019-02-08T17:20:21.609Z,6.95
2019-02-08T17:22:49.684Z,7.58
2019-02-08T17:25:17.832Z,8.25
2019-02-08T17:27:45.892Z,7.50
2019-02-08T17:30:15.794Z,8.18
2019-02-08T17:32:44.163Z,6.50
2019-02-08T17:35:12.801Z,9.53
2019-02-08T17:37:40.857Z,6.30
2019-02-08T17:40:10.412Z,7.70
2019-02-08T17:42:38.493Z,6.20
2019-02-08T17:45:07.612Z,7.33
2019-02-08T17:47:35.944Z,8.90
2019-02-08T17:50:05.388Z,10.05
2019-02-08T17:52:33.873Z,9.53
2019-02-08T17:55:01.926Z,6.85
2019-02-08T17:57:30.274Z,8.23
2019-02-08T17:59:58.613Z,7.90
2019-02-08T18:02:26.968Z,9.00
2019-02-08T18:04:58.060Z,9.65
2019-02-08T18:07:26.103Z,10.35
2019-02-08T18:09:54.668Z,9.23
2019-02-08T18:12:23.056Z,9.68
2019-02-08T18:14:51.448Z,7.92
2019-02-08T18:17:20.218Z,7.20
2019-02-08T18:19:48.724Z,6.50
2019-02-08T18:22:16.794Z,8.18
2019-02-08T18:24:45.207Z,7.53
2019-02-08T18:27:13.314Z,7.53
2019-02-08T18:29:41.378Z,9.60
2019-02-08T18:32:09.797Z,9.15
2019-02-08T18:34:37.883Z,6.87
2019-02-08T18:37:06.031Z,7.00
2019-02-08T18:39:34.433Z,8.23
2019-02-08T18:42:03.094Z,7.00
2019-02-08T18:44:31.116Z,7.33
2019-02-08T18:46:59.217Z,5.15
2019-02-08T18:49:27.649Z,7.35
2019-02-08T18:51:55.752Z,6.83
2019-02-08T18:54:24.156Z,7.87
2019-02-08T18:56:52.855Z,5.60
2019-02-08T18:59:20.893Z,8.00
2019-02-08T19:01:49.711Z,7.62
2019-02-08T19:04:18.108Z,5.70
2019-02-08T19:06:46.169Z,6.03
2019-02-08T19:09:14.558Z,7.00
2019-02-08T19:11:42.932Z,5.85
2019-02-08T19:14:10.992Z,9.33
2019-02-08T19:16:39.397Z,6.12
2019-02-08T19:19:07.423Z,6.57
2019-02-08T19:21:36.227Z,6.97
2019-02-08T19:24:05.034Z,5.25
2019-02-08T19:26:33.428Z,7.37
2019-02-08T19:29:01.496Z,5.30
2019-02-08T19:31:29.869Z,7.03
2019-02-08T19:33:57.939Z,6.58
2019-02-08T19:36:26.640Z,6.92
2019-02-08T19:38:55.001Z,4.78
2019-02-08T19:41:23.385Z,5.90
2019-02-08T19:43:51.868Z,6.77
2019-02-08T19:46:20.241Z,6.25
2019-02-08T19:48:48.653Z,8.00
2019-02-08T19:51:16.717Z,6.00
2019-02-08T19:53:45.087Z,6.33
2019-02-08T19:56:13.561Z,7.60
2019-02-08T19:58:41.604Z,7.35
2019-02-08T20:01:10.121Z,6.37
2019-02-08T20:03:38.137Z,7.55
2019-02-08T20:06:06.304Z,6.97
2019-02-08T20:08:34.618Z,5.58
2019-02-08T20:11:02.690Z,5.72
2019-02-08T20:13:31.090Z,5.78
2019-02-08T20:15:59.181Z,5.12
2019-02-08T20:18:27.192Z,3.80
2019-02-08T20:20:55.312Z,5.97
2019-02-08T20:23:23.674Z,5.20
2019-02-08T20:25:51.730Z,5.35
2019-02-08T20:28:19.755Z,5.70
2019-02-08T20:30:48.096Z,5.60
2019-02-08T20:33:16.812Z,7.85
2019-02-08T20:35:45.080Z,5.03
2019-02-08T20:38:13.128Z,4.90
2019-02-08T20:40:42.516Z,4.30
2019-02-08T20:43:10.921Z,4.53
2019-02-08T20:45:39.388Z,4.30
2019-02-08T20:48:08.896Z,4.15
2019-02-08T20:50:37.280Z,6.87
2019-02-08T20:53:05.678Z,5.83
2019-02-08T20:55:33.955Z,8.30
2019-02-08T20:58:02.337Z,6.67
2019-02-08T21:00:34.656Z,5.15
2019-02-08T21:03:03.099Z,5.17
2019-02-08T21:05:31.567Z,3.60
2019-02-08T21:07:59.707Z,5.33
2019-02-08T21:10:28.300Z,5.80
2019-02-08T21:12:56.728Z,5.30
2019-02-08T21:15:25.476Z,4.75
2019-02-08T21:17:54.170Z,6.70
2019-02-08T21:20:22.279Z,3.60
2019-02-08T21:22:50.356Z,7.47
2019-02-08T21:25:19.884Z,7.30
2019-02-08T21:27:48.301Z,4.95
2019-02-08T21:30:16.374Z,5.00
2019-02-08T21:32:44.407Z,5.90
2019-02-08T21:35:12.935Z,4.07
2019-02-08T21:37:41.714Z,3.83
2019-02-08T21:40:10.502Z,5.20
2019-02-08T21:42:39.398Z,6.25
2019-02-08T21:45:09.467Z,7.67
2019-02-08T21:47:37.499Z,3.80
2019-02-08T21:50:07.490Z,4.60
2019-02-08T21:52:35.867Z,5.50
2019-02-08T21:55:06.062Z,7.25
2019-02-08T21:57:34.376Z,5.45
2019-02-08T22:00:03.064Z,6.40
2019-02-08T22:02:31.690Z,3.75
2019-02-08T22:04:59.790Z,4.78
2019-02-08T22:07:28.428Z,3.85
2019-02-08T22:09:57.215Z,4.80
2019-02-08T22:12:25.570Z,5.83
2019-02-08T22:14:57.053Z,5.80
2019-02-08T22:17:25.363Z,7.03
2019-02-08T22:19:53.730Z,4.97
2019-02-08T22:22:21.747Z,6.47
2019-02-08T22:24:49.764Z,4.08
2019-02-08T22:27:18.209Z,5.47
2019-02-08T22:29:46.281Z,5.15
2019-02-08T22:32:14.327Z,5.30
2019-02-08T22:34:42.697Z,4.30
2019-02-08T22:37:11.108Z,6.73
2019-02-08T22:39:39.190Z,4.35
2019-02-08T22:42:07.253Z,4.65
2019-02-08T22:44:35.632Z,5.08
2019-02-08T22:47:03.717Z,6.15
2019-02-08T22:49:31.768Z,5.67
2019-02-08T22:52:00.164Z,3.58
2019-02-08T22:54:28.543Z,4.75
2019-02-08T22:56:56.911Z,7.05
2019-02-08T22:59:25.299Z,2.67
2019-02-08T23:01:53.843Z,5.37
2019-02-08T23:04:22.278Z,4.83
2019-02-08T23:06:51.047Z,5.42
2019-02-08T23:09:23.524Z,4.92
2019-02-08T23:11:51.613Z,5.85
2019-02-08T23:14:20.098Z,4.22
2019-02-08T23:16:48.458Z,5.03
2019-02-08T23:19:16.880Z,4.47
2019-02-08T23:21:45.619Z,8.05
2019-02-08T23:24:13.687Z,3.87
2019-02-08T23:26:41.971Z,5.12
2019-02-08T23:29:10.039Z,5.22
2019-02-08T23:31:38.463Z,4.80
2019-02-08T23:34:06.804Z,6.60
2019-02-08T23:36:34.828Z,4.65
2019-02-08T23:39:02.879Z,4.05
2019-02-08T23:41:30.917Z,5.60
2019-02-08T23:43:59.337Z,4.83
2019-02-08T23:46:28.090Z,7.00
2019-02-08T23:48:56.772Z,4.45
2019-02-08T23:51:25.085Z,5.83
2019-02-08T23:53:53.105Z,6.05
2019-02-08T23:56:21.501Z,4.87
2019-02-08T23:58:49.524Z,4.83
